sensor_id;sensor_type;location;lat;lon;timestamp;P1;durP1;ratioP1;P2;durP2;ratioP2
79487;SDS011;68949;53.176;18.088;2023-05-10T00:00:48;6.60;;;2.70;;
79487;SDS011;68949;53.176;18.088;2023-05-10T00:03:15;7.90;;;2.70;;
79487;SDS011;68949;53.176;18.088;2023-05-10T00:05:41;5.90;;;2.50;;
79487;SDS011;68949;53.176;18.088;2023-05-10T00:08:08;5.20;;;2.20;;
79487;SDS011;68949;53.176;18.088;2023-05-10T00:10:35;5.40;;;2.40;;
79487;SDS011;68949;53.176;18.088;2023-05-10T00:13:03;5.60;;;1.90;;
79487;SDS011;68949;53.176;18.088;2023-05-10T00:15:30;7.20;;;2.20;;
79487;SDS011;68949;53.176;18.088;2023-05-10T00:17:57;5.00;;;1.90;;
79487;SDS011;68949;53.176;18.088;2023-05-10T00:20:24;5.50;;;1.90;;
79487;SDS011;68949;53.176;18.088;2023-05-10T00:22:50;8.70;;;2.40;;
79487;SDS011;68949;53.176;18.088;2023-05-10T00:25:17;6.90;;;2.40;;
79487;SDS011;68949;53.176;18.088;2023-05-10T00:27:44;6.50;;;2.10;;
79487;SDS011;68949;53.176;18.088;2023-05-10T00:30:11;7.20;;;2.00;;
79487;SDS011;68949;53.176;18.088;2023-05-10T00:32:38;5.90;;;2.10;;
79487;SDS011;68949;53.176;18.088;2023-05-10T00:35:05;6.70;;;2.20;;
79487;SDS011;68949;53.176;18.088;2023-05-10T00:37:32;7.10;;;2.50;;
79487;SDS011;68949;53.176;18.088;2023-05-10T00:39:59;7.90;;;2.40;;
79487;SDS011;68949;53.176;18.088;2023-05-10T00:42:27;7.50;;;2.70;;
79487;SDS011;68949;53.176;18.088;2023-05-10T00:44:54;8.10;;;2.90;;
79487;SDS011;68949;53.176;18.088;2023-05-10T00:47:21;7.90;;;2.60;;
79487;SDS011;68949;53.176;18.088;2023-05-10T00:49:48;11.20;;;2.50;;
79487;SDS011;68949;53.176;18.088;2023-05-10T00:52:15;9.20;;;2.00;;
79487;SDS011;68949;53.176;18.088;2023-05-10T00:54:42;5.50;;;2.40;;
79487;SDS011;68949;53.176;18.088;2023-05-10T00:57:09;5.90;;;2.00;;
79487;SDS011;68949;53.176;18.088;2023-05-10T00:59:36;10.00;;;2.60;;
79487;SDS011;68949;53.176;18.088;2023-05-10T01:02:03;6.90;;;2.60;;
79487;SDS011;68949;53.176;18.088;2023-05-10T01:04:30;6.80;;;2.50;;
79487;SDS011;68949;53.176;18.088;2023-05-10T01:06:57;6.50;;;2.50;;
79487;SDS011;68949;53.176;18.088;2023-05-10T01:09:24;6.80;;;2.10;;
79487;SDS011;68949;53.176;18.088;2023-05-10T01:11:53;5.70;;;2.30;;
79487;SDS011;68949;53.176;18.088;2023-05-10T01:14:21;5.80;;;2.40;;
79487;SDS011;68949;53.176;18.088;2023-05-10T01:16:49;7.40;;;3.00;;
79487;SDS011;68949;53.176;18.088;2023-05-10T01:19:25;6.70;;;2.40;;
79487;SDS011;68949;53.176;18.088;2023-05-10T01:22:31;6.60;;;2.00;;
79487;SDS011;68949;53.176;18.088;2023-05-10T01:26:12;6.10;;;2.20;;
79487;SDS011;68949;53.176;18.088;2023-05-10T01:28:38;7.00;;;2.00;;
79487;SDS011;68949;53.176;18.088;2023-05-10T01:31:38;5.70;;;2.10;;
79487;SDS011;68949;53.176;18.088;2023-05-10T01:34:23;4.90;;;1.70;;
79487;SDS011;68949;53.176;18.088;2023-05-10T01:36:58;17.70;;;4.50;;
79487;SDS011;68949;53.176;18.088;2023-05-10T01:39:49;6.60;;;2.10;;
79487;SDS011;68949;53.176;18.088;2023-05-10T01:42:26;5.50;;;2.20;;
79487;SDS011;68949;53.176;18.088;2023-05-10T01:47:40;8.10;;;2.30;;
79487;SDS011;68949;53.176;18.088;2023-05-10T01:50:18;6.10;;;2.00;;
79487;SDS011;68949;53.176;18.088;2023-05-10T01:52:55;6.20;;;2.00;;
79487;SDS011;68949;53.176;18.088;2023-05-10T01:55:26;6.10;;;2.10;;
79487;SDS011;68949;53.176;18.088;2023-05-10T01:58:06;5.30;;;1.80;;
79487;SDS011;68949;53.176;18.088;2023-05-10T02:00:36;5.90;;;2.10;;
79487;SDS011;68949;53.176;18.088;2023-05-10T02:03:10;6.70;;;2.40;;
79487;SDS011;68949;53.176;18.088;2023-05-10T02:05:38;6.30;;;2.40;;
79487;SDS011;68949;53.176;18.088;2023-05-10T02:08:08;6.20;;;2.20;;
79487;SDS011;68949;53.176;18.088;2023-05-10T02:10:37;5.20;;;2.10;;
79487;SDS011;68949;53.176;18.088;2023-05-10T02:13:07;6.90;;;2.50;;
79487;SDS011;68949;53.176;18.088;2023-05-10T02:15:36;6.70;;;2.20;;
79487;SDS011;68949;53.176;18.088;2023-05-10T02:18:05;6.70;;;2.20;;
79487;SDS011;68949;53.176;18.088;2023-05-10T02:20:33;5.40;;;2.20;;
79487;SDS011;68949;53.176;18.088;2023-05-10T02:23:02;7.40;;;2.40;;
79487;SDS011;68949;53.176;18.088;2023-05-10T02:25:31;7.10;;;2.40;;
79487;SDS011;68949;53.176;18.088;2023-05-10T02:28:02;6.90;;;2.30;;
79487;SDS011;68949;53.176;18.088;2023-05-10T02:30:33;6.20;;;2.40;;
79487;SDS011;68949;53.176;18.088;2023-05-10T02:33:04;6.90;;;2.10;;
79487;SDS011;68949;53.176;18.088;2023-05-10T02:35:32;7.40;;;2.50;;
79487;SDS011;68949;53.176;18.088;2023-05-10T02:38:00;7.40;;;2.30;;
79487;SDS011;68949;53.176;18.088;2023-05-10T02:40:30;6.20;;;2.10;;
79487;SDS011;68949;53.176;18.088;2023-05-10T02:42:59;8.60;;;2.60;;
79487;SDS011;68949;53.176;18.088;2023-05-10T02:45:30;7.00;;;2.00;;
79487;SDS011;68949;53.176;18.088;2023-05-10T02:47:59;6.00;;;2.10;;
79487;SDS011;68949;53.176;18.088;2023-05-10T02:50:28;6.90;;;2.40;;
79487;SDS011;68949;53.176;18.088;2023-05-10T02:53:08;7.30;;;2.60;;
79487;SDS011;68949;53.176;18.088;2023-05-10T02:55:40;9.30;;;2.90;;
79487;SDS011;68949;53.176;18.088;2023-05-10T02:58:08;6.10;;;1.90;;
79487;SDS011;68949;53.176;18.088;2023-05-10T03:00:35;5.10;;;1.90;;
79487;SDS011;68949;53.176;18.088;2023-05-10T03:03:03;6.70;;;2.30;;
79487;SDS011;68949;53.176;18.088;2023-05-10T03:05:29;6.40;;;2.30;;
79487;SDS011;68949;53.176;18.088;2023-05-10T03:07:59;8.20;;;2.40;;
79487;SDS011;68949;53.176;18.088;2023-05-10T03:10:30;6.70;;;2.10;;
79487;SDS011;68949;53.176;18.088;2023-05-10T03:13:20;7.10;;;1.90;;
79487;SDS011;68949;53.176;18.088;2023-05-10T03:16:12;6.30;;;2.10;;
79487;SDS011;68949;53.176;18.088;2023-05-10T03:19:16;5.10;;;2.00;;
79487;SDS011;68949;53.176;18.088;2023-05-10T03:21:52;8.10;;;2.50;;
79487;SDS011;68949;53.176;18.088;2023-05-10T03:24:22;6.40;;;2.30;;
79487;SDS011;68949;53.176;18.088;2023-05-10T03:26:56;6.60;;;2.40;;
79487;SDS011;68949;53.176;18.088;2023-05-10T03:29:26;6.80;;;2.80;;
79487;SDS011;68949;53.176;18.088;2023-05-10T03:31:54;7.20;;;2.60;;
79487;SDS011;68949;53.176;18.088;2023-05-10T03:34:24;6.90;;;2.70;;
79487;SDS011;68949;53.176;18.088;2023-05-10T03:36:52;6.90;;;2.80;;
79487;SDS011;68949;53.176;18.088;2023-05-10T03:39:19;7.30;;;2.60;;
79487;SDS011;68949;53.176;18.088;2023-05-10T03:41:50;6.70;;;3.00;;
79487;SDS011;68949;53.176;18.088;2023-05-10T03:44:17;9.00;;;3.00;;
79487;SDS011;68949;53.176;18.088;2023-05-10T03:46:44;6.60;;;3.00;;
79487;SDS011;68949;53.176;18.088;2023-05-10T03:49:11;9.00;;;3.50;;
79487;SDS011;68949;53.176;18.088;2023-05-10T03:51:38;6.70;;;3.20;;
79487;SDS011;68949;53.176;18.088;2023-05-10T03:54:05;7.30;;;3.10;;
79487;SDS011;68949;53.176;18.088;2023-05-10T03:56:31;8.00;;;4.00;;
79487;SDS011;68949;53.176;18.088;2023-05-10T03:59:00;7.10;;;3.10;;
79487;SDS011;68949;53.176;18.088;2023-05-10T04:01:27;6.50;;;2.90;;
79487;SDS011;68949;53.176;18.088;2023-05-10T04:03:53;6.50;;;3.10;;
79487;SDS011;68949;53.176;18.088;2023-05-10T04:06:20;7.70;;;3.60;;
79487;SDS011;68949;53.176;18.088;2023-05-10T04:08:47;6.30;;;3.20;;
79487;SDS011;68949;53.176;18.088;2023-05-10T04:11:14;8.20;;;3.10;;
79487;SDS011;68949;53.176;18.088;2023-05-10T04:13:41;6.40;;;2.90;;
79487;SDS011;68949;53.176;18.088;2023-05-10T04:16:09;6.70;;;3.10;;
79487;SDS011;68949;53.176;18.088;2023-05-10T04:18:36;7.90;;;3.10;;
79487;SDS011;68949;53.176;18.088;2023-05-10T04:21:03;7.30;;;3.00;;
79487;SDS011;68949;53.176;18.088;2023-05-10T04:23:29;8.70;;;3.20;;
79487;SDS011;68949;53.176;18.088;2023-05-10T04:26:00;7.00;;;2.80;;
79487;SDS011;68949;53.176;18.088;2023-05-10T04:28:27;6.70;;;3.00;;
79487;SDS011;68949;53.176;18.088;2023-05-10T04:31:03;7.70;;;3.20;;
79487;SDS011;68949;53.176;18.088;2023-05-10T04:33:32;7.70;;;3.00;;
79487;SDS011;68949;53.176;18.088;2023-05-10T04:35:59;7.00;;;2.90;;
79487;SDS011;68949;53.176;18.088;2023-05-10T04:38:27;7.00;;;2.80;;
79487;SDS011;68949;53.176;18.088;2023-05-10T04:40:54;6.00;;;2.50;;
79487;SDS011;68949;53.176;18.088;2023-05-10T04:43:21;6.90;;;3.40;;
79487;SDS011;68949;53.176;18.088;2023-05-10T04:45:48;7.30;;;2.80;;
79487;SDS011;68949;53.176;18.088;2023-05-10T04:48:14;8.30;;;3.30;;
79487;SDS011;68949;53.176;18.088;2023-05-10T04:50:41;6.30;;;2.70;;
79487;SDS011;68949;53.176;18.088;2023-05-10T04:53:08;6.90;;;2.80;;
79487;SDS011;68949;53.176;18.088;2023-05-10T04:55:35;7.20;;;3.00;;
79487;SDS011;68949;53.176;18.088;2023-05-10T04:58:02;6.80;;;2.80;;
79487;SDS011;68949;53.176;18.088;2023-05-10T05:00:29;6.80;;;2.40;;
79487;SDS011;68949;53.176;18.088;2023-05-10T05:02:55;9.00;;;3.00;;
79487;SDS011;68949;53.176;18.088;2023-05-10T05:05:22;5.70;;;2.70;;
79487;SDS011;68949;53.176;18.088;2023-05-10T05:07:50;6.40;;;2.80;;
79487;SDS011;68949;53.176;18.088;2023-05-10T05:10:17;6.60;;;3.20;;
79487;SDS011;68949;53.176;18.088;2023-05-10T05:12:43;7.10;;;3.20;;
79487;SDS011;68949;53.176;18.088;2023-05-10T05:15:10;8.70;;;3.30;;
79487;SDS011;68949;53.176;18.088;2023-05-10T05:17:37;5.80;;;2.50;;
79487;SDS011;68949;53.176;18.088;2023-05-10T05:20:04;5.50;;;2.90;;
79487;SDS011;68949;53.176;18.088;2023-05-10T05:22:32;6.20;;;2.70;;
79487;SDS011;68949;53.176;18.088;2023-05-10T05:24:58;6.80;;;3.00;;
79487;SDS011;68949;53.176;18.088;2023-05-10T05:27:25;6.40;;;2.90;;
79487;SDS011;68949;53.176;18.088;2023-05-10T05:29:59;7.10;;;2.60;;
79487;SDS011;68949;53.176;18.088;2023-05-10T05:32:26;6.80;;;2.80;;
79487;SDS011;68949;53.176;18.088;2023-05-10T05:34:52;6.60;;;3.00;;
79487;SDS011;68949;53.176;18.088;2023-05-10T05:37:24;6.50;;;2.50;;
79487;SDS011;68949;53.176;18.088;2023-05-10T05:39:51;5.60;;;2.90;;
79487;SDS011;68949;53.176;18.088;2023-05-10T05:42:18;7.40;;;3.10;;
79487;SDS011;68949;53.176;18.088;2023-05-10T05:44:45;7.30;;;2.70;;
79487;SDS011;68949;53.176;18.088;2023-05-10T05:47:11;5.20;;;2.70;;
79487;SDS011;68949;53.176;18.088;2023-05-10T05:49:38;5.80;;;2.50;;
79487;SDS011;68949;53.176;18.088;2023-05-10T05:52:06;7.50;;;2.80;;
79487;SDS011;68949;53.176;18.088;2023-05-10T05:54:32;7.80;;;2.30;;
79487;SDS011;68949;53.176;18.088;2023-05-10T05:57:01;9.30;;;3.20;;
79487;SDS011;68949;53.176;18.088;2023-05-10T05:59:28;6.20;;;2.70;;
79487;SDS011;68949;53.176;18.088;2023-05-10T06:01:55;6.70;;;2.90;;
79487;SDS011;68949;53.176;18.088;2023-05-10T06:04:21;6.10;;;2.50;;
79487;SDS011;68949;53.176;18.088;2023-05-10T06:06:48;9.80;;;3.40;;
79487;SDS011;68949;53.176;18.088;2023-05-10T06:09:15;5.90;;;2.90;;
79487;SDS011;68949;53.176;18.088;2023-05-10T06:11:42;7.40;;;2.60;;
79487;SDS011;68949;53.176;18.088;2023-05-10T06:14:09;10.50;;;2.40;;
79487;SDS011;68949;53.176;18.088;2023-05-10T06:16:36;6.80;;;2.60;;
79487;SDS011;68949;53.176;18.088;2023-05-10T06:19:04;6.00;;;2.10;;
79487;SDS011;68949;53.176;18.088;2023-05-10T06:21:31;5.30;;;2.60;;
79487;SDS011;68949;53.176;18.088;2023-05-10T06:23:58;6.90;;;2.50;;
79487;SDS011;68949;53.176;18.088;2023-05-10T06:26:24;5.50;;;2.10;;
79487;SDS011;68949;53.176;18.088;2023-05-10T06:28:51;7.00;;;1.80;;
79487;SDS011;68949;53.176;18.088;2023-05-10T06:31:18;7.00;;;2.20;;
79487;SDS011;68949;53.176;18.088;2023-05-10T06:33:45;7.10;;;2.50;;
79487;SDS011;68949;53.176;18.088;2023-05-10T06:36:12;7.70;;;2.20;;
79487;SDS011;68949;53.176;18.088;2023-05-10T06:38:39;6.60;;;2.10;;
79487;SDS011;68949;53.176;18.088;2023-05-10T06:41:06;4.00;;;1.80;;
79487;SDS011;68949;53.176;18.088;2023-05-10T06:43:33;5.90;;;2.10;;
79487;SDS011;68949;53.176;18.088;2023-05-10T06:46:00;5.10;;;1.80;;
79487;SDS011;68949;53.176;18.088;2023-05-10T06:48:26;5.50;;;2.10;;
79487;SDS011;68949;53.176;18.088;2023-05-10T06:50:53;5.40;;;1.90;;
79487;SDS011;68949;53.176;18.088;2023-05-10T06:53:20;6.50;;;2.10;;
79487;SDS011;68949;53.176;18.088;2023-05-10T06:55:48;4.60;;;1.80;;
79487;SDS011;68949;53.176;18.088;2023-05-10T06:58:15;5.10;;;2.00;;
79487;SDS011;68949;53.176;18.088;2023-05-10T07:00:42;5.80;;;2.10;;
79487;SDS011;68949;53.176;18.088;2023-05-10T07:03:10;5.70;;;2.20;;
79487;SDS011;68949;53.176;18.088;2023-05-10T07:05:37;9.50;;;2.30;;
79487;SDS011;68949;53.176;18.088;2023-05-10T07:08:03;4.30;;;1.60;;
79487;SDS011;68949;53.176;18.088;2023-05-10T07:10:30;5.10;;;1.60;;
79487;SDS011;68949;53.176;18.088;2023-05-10T07:12:57;5.60;;;2.00;;
79487;SDS011;68949;53.176;18.088;2023-05-10T07:15:23;5.30;;;1.60;;
79487;SDS011;68949;53.176;18.088;2023-05-10T07:17:50;5.70;;;1.80;;
79487;SDS011;68949;53.176;18.088;2023-05-10T07:20:18;4.40;;;1.80;;
79487;SDS011;68949;53.176;18.088;2023-05-10T07:22:45;4.80;;;1.60;;
79487;SDS011;68949;53.176;18.088;2023-05-10T07:25:11;5.90;;;1.80;;
79487;SDS011;68949;53.176;18.088;2023-05-10T07:27:38;4.10;;;1.30;;
79487;SDS011;68949;53.176;18.088;2023-05-10T07:30:05;4.60;;;1.70;;
79487;SDS011;68949;53.176;18.088;2023-05-10T07:32:33;7.10;;;1.60;;
79487;SDS011;68949;53.176;18.088;2023-05-10T07:35:00;5.30;;;1.90;;
79487;SDS011;68949;53.176;18.088;2023-05-10T07:37:26;5.00;;;1.90;;
79487;SDS011;68949;53.176;18.088;2023-05-10T07:39:53;5.80;;;1.40;;
79487;SDS011;68949;53.176;18.088;2023-05-10T07:42:20;6.60;;;1.50;;
79487;SDS011;68949;53.176;18.088;2023-05-10T07:44:46;4.50;;;1.40;;
79487;SDS011;68949;53.176;18.088;2023-05-10T07:47:13;5.10;;;1.90;;
79487;SDS011;68949;53.176;18.088;2023-05-10T07:49:40;5.80;;;1.60;;
79487;SDS011;68949;53.176;18.088;2023-05-10T07:52:07;5.00;;;1.40;;
79487;SDS011;68949;53.176;18.088;2023-05-10T07:54:33;3.80;;;1.30;;
79487;SDS011;68949;53.176;18.088;2023-05-10T07:57:00;6.80;;;2.00;;
79487;SDS011;68949;53.176;18.088;2023-05-10T07:59:27;4.80;;;1.80;;
79487;SDS011;68949;53.176;18.088;2023-05-10T08:01:54;5.60;;;1.50;;
79487;SDS011;68949;53.176;18.088;2023-05-10T08:04:20;6.00;;;1.60;;
79487;SDS011;68949;53.176;18.088;2023-05-10T08:06:47;5.20;;;1.50;;
79487;SDS011;68949;53.176;18.088;2023-05-10T08:09:14;5.30;;;1.50;;
79487;SDS011;68949;53.176;18.088;2023-05-10T08:11:40;5.90;;;1.60;;
79487;SDS011;68949;53.176;18.088;2023-05-10T08:14:07;4.10;;;1.60;;
79487;SDS011;68949;53.176;18.088;2023-05-10T08:16:34;3.70;;;1.10;;
79487;SDS011;68949;53.176;18.088;2023-05-10T08:19:05;5.00;;;1.60;;
79487;SDS011;68949;53.176;18.088;2023-05-10T08:21:32;4.10;;;1.50;;
79487;SDS011;68949;53.176;18.088;2023-05-10T08:23:59;4.60;;;1.70;;
79487;SDS011;68949;53.176;18.088;2023-05-10T08:26:25;6.00;;;1.80;;
79487;SDS011;68949;53.176;18.088;2023-05-10T08:28:52;5.60;;;1.50;;
79487;SDS011;68949;53.176;18.088;2023-05-10T08:31:19;5.50;;;1.40;;
79487;SDS011;68949;53.176;18.088;2023-05-10T08:33:46;4.50;;;1.40;;
79487;SDS011;68949;53.176;18.088;2023-05-10T08:36:13;5.30;;;1.60;;
79487;SDS011;68949;53.176;18.088;2023-05-10T08:38:41;7.40;;;1.80;;
79487;SDS011;68949;53.176;18.088;2023-05-10T08:41:08;5.80;;;1.50;;
79487;SDS011;68949;53.176;18.088;2023-05-10T08:43:36;4.30;;;1.50;;
79487;SDS011;68949;53.176;18.088;2023-05-10T08:46:05;4.40;;;1.30;;
79487;SDS011;68949;53.176;18.088;2023-05-10T08:48:34;5.20;;;1.00;;
79487;SDS011;68949;53.176;18.088;2023-05-10T08:51:08;4.20;;;1.30;;
79487;SDS011;68949;53.176;18.088;2023-05-10T08:53:39;4.30;;;1.50;;
79487;SDS011;68949;53.176;18.088;2023-05-10T08:56:06;4.40;;;1.40;;
79487;SDS011;68949;53.176;18.088;2023-05-10T08:58:33;4.70;;;1.90;;
79487;SDS011;68949;53.176;18.088;2023-05-10T09:01:00;5.40;;;1.60;;
79487;SDS011;68949;53.176;18.088;2023-05-10T09:03:27;5.90;;;1.50;;
79487;SDS011;68949;53.176;18.088;2023-05-10T09:05:54;5.40;;;1.50;;
79487;SDS011;68949;53.176;18.088;2023-05-10T09:08:24;5.80;;;1.30;;
79487;SDS011;68949;53.176;18.088;2023-05-10T09:10:54;4.50;;;1.60;;
79487;SDS011;68949;53.176;18.088;2023-05-10T09:13:30;4.30;;;1.50;;
79487;SDS011;68949;53.176;18.088;2023-05-10T09:15:58;4.10;;;1.40;;
79487;SDS011;68949;53.176;18.088;2023-05-10T09:18:25;5.00;;;1.60;;
79487;SDS011;68949;53.176;18.088;2023-05-10T09:20:52;3.90;;;1.50;;
79487;SDS011;68949;53.176;18.088;2023-05-10T09:23:18;5.20;;;1.90;;
79487;SDS011;68949;53.176;18.088;2023-05-10T09:25:46;5.30;;;1.90;;
79487;SDS011;68949;53.176;18.088;2023-05-10T09:28:13;4.80;;;1.60;;
79487;SDS011;68949;53.176;18.088;2023-05-10T09:30:40;4.20;;;1.40;;
79487;SDS011;68949;53.176;18.088;2023-05-10T09:33:06;3.90;;;1.40;;
79487;SDS011;68949;53.176;18.088;2023-05-10T09:35:34;4.80;;;1.50;;
79487;SDS011;68949;53.176;18.088;2023-05-10T09:38:04;6.80;;;1.90;;
79487;SDS011;68949;53.176;18.088;2023-05-10T09:40:32;3.90;;;1.90;;
79487;SDS011;68949;53.176;18.088;2023-05-10T09:43:17;4.90;;;1.90;;
79487;SDS011;68949;53.176;18.088;2023-05-10T09:45:48;4.60;;;1.40;;
79487;SDS011;68949;53.176;18.088;2023-05-10T09:48:16;3.90;;;1.60;;
79487;SDS011;68949;53.176;18.088;2023-05-10T09:50:43;4.10;;;1.70;;
79487;SDS011;68949;53.176;18.088;2023-05-10T09:53:14;6.00;;;1.50;;
79487;SDS011;68949;53.176;18.088;2023-05-10T09:55:44;5.80;;;1.40;;
79487;SDS011;68949;53.176;18.088;2023-05-10T09:58:13;3.70;;;1.20;;
79487;SDS011;68949;53.176;18.088;2023-05-10T10:00:42;4.50;;;1.30;;
79487;SDS011;68949;53.176;18.088;2023-05-10T10:03:15;5.60;;;1.40;;
79487;SDS011;68949;53.176;18.088;2023-05-10T10:05:44;5.40;;;1.80;;
79487;SDS011;68949;53.176;18.088;2023-05-10T10:08:13;4.70;;;1.40;;
79487;SDS011;68949;53.176;18.088;2023-05-10T10:10:41;5.10;;;1.20;;
79487;SDS011;68949;53.176;18.088;2023-05-10T10:13:08;4.70;;;2.00;;
79487;SDS011;68949;53.176;18.088;2023-05-10T10:15:35;4.90;;;1.90;;
79487;SDS011;68949;53.176;18.088;2023-05-10T10:18:02;4.90;;;1.60;;
79487;SDS011;68949;53.176;18.088;2023-05-10T10:20:32;4.40;;;1.40;;
79487;SDS011;68949;53.176;18.088;2023-05-10T10:22:59;6.10;;;1.50;;
79487;SDS011;68949;53.176;18.088;2023-05-10T10:25:26;6.00;;;1.60;;
79487;SDS011;68949;53.176;18.088;2023-05-10T10:30:43;4.70;;;1.80;;
79487;SDS011;68949;53.176;18.088;2023-05-10T10:36:14;5.30;;;1.90;;
79487;SDS011;68949;53.176;18.088;2023-05-10T10:41:31;6.40;;;2.40;;
79487;SDS011;68949;53.176;18.088;2023-05-10T10:44:25;7.20;;;1.50;;
79487;SDS011;68949;53.176;18.088;2023-05-10T10:47:20;8.00;;;1.90;;
79487;SDS011;68949;53.176;18.088;2023-05-10T10:52:28;4.00;;;1.60;;
79487;SDS011;68949;53.176;18.088;2023-05-10T10:57:43;7.10;;;1.70;;
79487;SDS011;68949;53.176;18.088;2023-05-10T11:03:05;5.70;;;1.80;;
79487;SDS011;68949;53.176;18.088;2023-05-10T11:08:25;5.30;;;1.80;;
79487;SDS011;68949;53.176;18.088;2023-05-10T11:13:47;6.30;;;2.10;;
79487;SDS011;68949;53.176;18.088;2023-05-10T11:21:20;7.50;;;2.10;;
79487;SDS011;68949;53.176;18.088;2023-05-10T11:23:53;3.80;;;1.80;;
79487;SDS011;68949;53.176;18.088;2023-05-10T11:26:29;5.50;;;2.00;;
79487;SDS011;68949;53.176;18.088;2023-05-10T11:28:57;5.60;;;1.60;;
79487;SDS011;68949;53.176;18.088;2023-05-10T11:31:28;6.50;;;1.70;;
79487;SDS011;68949;53.176;18.088;2023-05-10T11:34:00;6.10;;;2.10;;
79487;SDS011;68949;53.176;18.088;2023-05-10T11:36:34;6.70;;;1.90;;
79487;SDS011;68949;53.176;18.088;2023-05-10T11:39:03;5.80;;;1.40;;
79487;SDS011;68949;53.176;18.088;2023-05-10T11:41:31;7.10;;;1.80;;
79487;SDS011;68949;53.176;18.088;2023-05-10T11:43:58;6.10;;;1.80;;
79487;SDS011;68949;53.176;18.088;2023-05-10T11:46:27;6.90;;;1.90;;
79487;SDS011;68949;53.176;18.088;2023-05-10T11:48:59;5.70;;;1.90;;
79487;SDS011;68949;53.176;18.088;2023-05-10T11:51:28;6.70;;;2.10;;
79487;SDS011;68949;53.176;18.088;2023-05-10T11:53:55;8.00;;;1.70;;
79487;SDS011;68949;53.176;18.088;2023-05-10T11:56:23;9.90;;;1.80;;
79487;SDS011;68949;53.176;18.088;2023-05-10T11:58:57;6.20;;;2.00;;
79487;SDS011;68949;53.176;18.088;2023-05-10T12:01:27;5.80;;;1.70;;
79487;SDS011;68949;53.176;18.088;2023-05-10T12:03:57;7.40;;;2.00;;
79487;SDS011;68949;53.176;18.088;2023-05-10T12:06:27;4.80;;;1.70;;
79487;SDS011;68949;53.176;18.088;2023-05-10T12:09:13;3.80;;;1.60;;
79487;SDS011;68949;53.176;18.088;2023-05-10T12:11:46;4.80;;;1.60;;
79487;SDS011;68949;53.176;18.088;2023-05-10T12:14:13;6.40;;;1.80;;
79487;SDS011;68949;53.176;18.088;2023-05-10T12:16:43;4.30;;;1.50;;
79487;SDS011;68949;53.176;18.088;2023-05-10T12:19:10;4.60;;;1.50;;
79487;SDS011;68949;53.176;18.088;2023-05-10T12:21:37;6.40;;;1.90;;
79487;SDS011;68949;53.176;18.088;2023-05-10T12:24:05;4.90;;;1.70;;
79487;SDS011;68949;53.176;18.088;2023-05-10T12:26:32;6.00;;;1.40;;
79487;SDS011;68949;53.176;18.088;2023-05-10T12:29:16;4.00;;;1.60;;
79487;SDS011;68949;53.176;18.088;2023-05-10T12:34:25;7.10;;;1.70;;
79487;SDS011;68949;53.176;18.088;2023-05-10T12:36:53;10.10;;;2.30;;
79487;SDS011;68949;53.176;18.088;2023-05-10T12:39:21;7.40;;;2.20;;
79487;SDS011;68949;53.176;18.088;2023-05-10T12:41:48;4.70;;;1.60;;
79487;SDS011;68949;53.176;18.088;2023-05-10T12:44:15;6.00;;;1.50;;
79487;SDS011;68949;53.176;18.088;2023-05-10T12:46:41;4.20;;;1.70;;
79487;SDS011;68949;53.176;18.088;2023-05-10T12:49:08;7.90;;;1.80;;
79487;SDS011;68949;53.176;18.088;2023-05-10T12:51:35;7.00;;;1.60;;
79487;SDS011;68949;53.176;18.088;2023-05-10T12:54:02;6.00;;;1.40;;
79487;SDS011;68949;53.176;18.088;2023-05-10T12:56:30;4.20;;;1.80;;
79487;SDS011;68949;53.176;18.088;2023-05-10T12:58:56;4.30;;;1.00;;
79487;SDS011;68949;53.176;18.088;2023-05-10T13:01:23;7.50;;;2.10;;
79487;SDS011;68949;53.176;18.088;2023-05-10T13:03:50;6.20;;;1.90;;
79487;SDS011;68949;53.176;18.088;2023-05-10T13:06:16;5.00;;;1.80;;
79487;SDS011;68949;53.176;18.088;2023-05-10T13:08:43;9.00;;;1.70;;
79487;SDS011;68949;53.176;18.088;2023-05-10T13:11:10;5.80;;;1.90;;
79487;SDS011;68949;53.176;18.088;2023-05-10T13:13:36;6.60;;;1.70;;
79487;SDS011;68949;53.176;18.088;2023-05-10T13:16:03;6.70;;;1.40;;
79487;SDS011;68949;53.176;18.088;2023-05-10T13:18:30;7.30;;;1.50;;
79487;SDS011;68949;53.176;18.088;2023-05-10T13:20:57;5.00;;;1.50;;
79487;SDS011;68949;53.176;18.088;2023-05-10T13:23:24;4.50;;;1.80;;
79487;SDS011;68949;53.176;18.088;2023-05-10T13:25:51;7.60;;;1.70;;
79487;SDS011;68949;53.176;18.088;2023-05-10T13:28:17;5.70;;;1.90;;
79487;SDS011;68949;53.176;18.088;2023-05-10T13:30:44;5.30;;;1.70;;
79487;SDS011;68949;53.176;18.088;2023-05-10T13:33:11;6.40;;;1.70;;
79487;SDS011;68949;53.176;18.088;2023-05-10T13:35:38;9.10;;;1.60;;
79487;SDS011;68949;53.176;18.088;2023-05-10T13:38:04;8.30;;;2.30;;
79487;SDS011;68949;53.176;18.088;2023-05-10T13:40:34;6.40;;;1.80;;
79487;SDS011;68949;53.176;18.088;2023-05-10T13:43:02;5.10;;;1.50;;
79487;SDS011;68949;53.176;18.088;2023-05-10T13:45:29;4.70;;;1.40;;
79487;SDS011;68949;53.176;18.088;2023-05-10T13:47:56;5.90;;;1.70;;
79487;SDS011;68949;53.176;18.088;2023-05-10T13:50:22;8.10;;;1.70;;
79487;SDS011;68949;53.176;18.088;2023-05-10T13:52:49;10.20;;;2.70;;
79487;SDS011;68949;53.176;18.088;2023-05-10T13:55:16;5.60;;;2.10;;
79487;SDS011;68949;53.176;18.088;2023-05-10T13:57:42;5.00;;;1.70;;
79487;SDS011;68949;53.176;18.088;2023-05-10T14:00:10;10.20;;;2.30;;
79487;SDS011;68949;53.176;18.088;2023-05-10T14:02:37;6.80;;;2.00;;
79487;SDS011;68949;53.176;18.088;2023-05-10T14:05:04;5.60;;;1.80;;
79487;SDS011;68949;53.176;18.088;2023-05-10T14:07:31;5.10;;;1.20;;
79487;SDS011;68949;53.176;18.088;2023-05-10T14:09:58;5.30;;;1.50;;
79487;SDS011;68949;53.176;18.088;2023-05-10T14:12:25;5.30;;;1.80;;
79487;SDS011;68949;53.176;18.088;2023-05-10T14:14:52;6.30;;;1.90;;
79487;SDS011;68949;53.176;18.088;2023-05-10T14:17:18;5.50;;;1.90;;
79487;SDS011;68949;53.176;18.088;2023-05-10T14:19:45;7.30;;;2.00;;
79487;SDS011;68949;53.176;18.088;2023-05-10T14:22:12;7.20;;;1.70;;
79487;SDS011;68949;53.176;18.088;2023-05-10T14:24:39;5.00;;;1.90;;
79487;SDS011;68949;53.176;18.088;2023-05-10T14:27:05;5.60;;;2.00;;
79487;SDS011;68949;53.176;18.088;2023-05-10T14:29:35;7.40;;;1.70;;
79487;SDS011;68949;53.176;18.088;2023-05-10T14:32:02;4.20;;;1.50;;
79487;SDS011;68949;53.176;18.088;2023-05-10T14:34:29;4.70;;;1.90;;
79487;SDS011;68949;53.176;18.088;2023-05-10T14:36:56;10.00;;;2.00;;
79487;SDS011;68949;53.176;18.088;2023-05-10T14:39:22;6.20;;;2.40;;
79487;SDS011;68949;53.176;18.088;2023-05-10T14:41:49;4.10;;;1.60;;
79487;SDS011;68949;53.176;18.088;2023-05-10T14:44:17;4.70;;;1.60;;
79487;SDS011;68949;53.176;18.088;2023-05-10T14:46:44;9.50;;;1.90;;
79487;SDS011;68949;53.176;18.088;2023-05-10T14:49:11;6.40;;;2.20;;
79487;SDS011;68949;53.176;18.088;2023-05-10T14:51:38;5.10;;;1.90;;
79487;SDS011;68949;53.176;18.088;2023-05-10T14:54:05;5.70;;;1.90;;
79487;SDS011;68949;53.176;18.088;2023-05-10T14:56:32;5.00;;;2.20;;
79487;SDS011;68949;53.176;18.088;2023-05-10T14:58:58;9.90;;;2.20;;
79487;SDS011;68949;53.176;18.088;2023-05-10T15:01:26;4.20;;;1.80;;
79487;SDS011;68949;53.176;18.088;2023-05-10T15:03:53;4.50;;;1.80;;
79487;SDS011;68949;53.176;18.088;2023-05-10T15:06:29;6.30;;;1.80;;
79487;SDS011;68949;53.176;18.088;2023-05-10T15:08:57;7.00;;;1.60;;
79487;SDS011;68949;53.176;18.088;2023-05-10T15:11:24;6.60;;;1.90;;
79487;SDS011;68949;53.176;18.088;2023-05-10T15:13:51;5.90;;;2.20;;
79487;SDS011;68949;53.176;18.088;2023-05-10T15:16:18;6.10;;;2.20;;